createdAt,value
2019-02-19T00:00:29.943Z,11.10
2019-02-19T00:02:56.149Z,11.10
2019-02-19T00:05:22.426Z,11.10
2019-02-19T00:07:48.614Z,11.00
2019-02-19T00:10:14.851Z,11.00
2019-02-19T00:12:41.055Z,11.10
2019-02-19T00:15:08.560Z,11.00
2019-02-19T00:17:35.002Z,11.10
2019-02-19T00:20:01.308Z,11.10
2019-02-19T00:22:27.736Z,11.10
2019-02-19T00:24:54.129Z,11.10
2019-02-19T00:27:22.896Z,11.00
2019-02-19T00:29:49.220Z,11.00
2019-02-19T00:32:15.436Z,10.90
2019-02-19T00:34:41.740Z,10.90
2019-02-19T00:37:08.026Z,11.00
2019-02-19T00:39:34.249Z,11.00
2019-02-19T00:42:00.430Z,11.10
2019-02-19T00:44:26.665Z,11.00
2019-02-19T00:46:52.912Z,11.10
2019-02-19T00:49:19.334Z,11.20
2019-02-19T00:51:45.570Z,11.20
2019-02-19T00:54:11.778Z,11.20
2019-02-19T00:56:38.091Z,11.10
2019-02-19T00:59:04.283Z,11.20
2019-02-19T01:01:30.599Z,11.20
2019-02-19T01:03:56.923Z,11.10
2019-02-19T01:06:23.113Z,11.10
2019-02-19T01:08:49.455Z,11.10
2019-02-19T01:11:15.660Z,11.10
2019-02-19T01:13:41.857Z,11.10
2019-02-19T01:16:08.244Z,11.00
2019-02-19T01:18:34.451Z,10.90
2019-02-19T01:21:00.679Z,10.90
2019-02-19T01:23:26.901Z,10.90
2019-02-19T01:25:53.188Z,10.90
2019-02-19T01:28:19.526Z,11.00
2019-02-19T01:30:45.715Z,10.90
2019-02-19T01:33:11.951Z,10.90
2019-02-19T01:35:40.931Z,10.90
2019-02-19T01:38:07.148Z,10.80
2019-02-19T01:40:33.439Z,10.90
2019-02-19T01:42:59.668Z,10.80
2019-02-19T01:45:33.709Z,10.70
2019-02-19T01:47:54.108Z,10.70
2019-02-19T01:50:20.340Z,10.60
2019-02-19T01:52:46.543Z,10.60
2019-02-19T01:55:12.747Z,10.60
2019-02-19T01:57:39.096Z,10.50
2019-02-19T02:00:08.601Z,10.50
2019-02-19T02:02:34.819Z,10.50
2019-02-19T02:05:01.019Z,10.50
2019-02-19T02:07:27.211Z,10.50
2019-02-19T02:09:53.435Z,10.50
2019-02-19T02:12:19.722Z,10.40
2019-02-19T02:14:45.940Z,10.50
2019-02-19T02:17:12.289Z,10.50
2019-02-19T02:19:38.520Z,10.50
2019-02-19T02:22:04.841Z,10.40
2019-02-19T02:24:31.400Z,10.40
2019-02-19T02:26:57.608Z,10.20
2019-02-19T02:29:23.828Z,10.30
2019-02-19T02:31:50.055Z,10.20
2019-02-19T02:34:16.275Z,10.30
2019-02-19T02:36:42.597Z,10.30
2019-02-19T02:39:08.816Z,10.40
2019-02-19T02:41:37.028Z,10.40
2019-02-19T02:44:03.246Z,10.40
2019-02-19T02:46:32.483Z,10.50
2019-02-19T02:48:58.823Z,10.50
2019-02-19T02:51:25.043Z,10.40
2019-02-19T02:53:51.275Z,10.30
2019-02-19T02:56:17.467Z,10.20
2019-02-19T02:58:43.715Z,10.20
2019-02-19T03:01:09.903Z,10.20
2019-02-19T03:03:36.137Z,10.30
2019-02-19T03:06:07.007Z,10.30
2019-02-19T03:08:33.286Z,10.30
2019-02-19T03:10:59.499Z,10.20
2019-02-19T03:13:25.716Z,10.20
2019-02-19T03:15:52.123Z,10.20
2019-02-19T03:18:18.330Z,10.10
2019-02-19T03:20:44.544Z,10.10
2019-02-19T03:23:10.723Z,10.10
2019-02-19T03:25:36.949Z,10.20
2019-02-19T03:28:03.164Z,10.10
2019-02-19T03:30:29.386Z,10.10
2019-02-19T03:32:55.712Z,10.00
2019-02-19T03:35:21.996Z,9.90
2019-02-19T03:37:48.182Z,9.90
2019-02-19T03:40:14.406Z,9.90
2019-02-19T03:42:40.703Z,9.80
2019-02-19T03:45:08.451Z,9.90
2019-02-19T03:47:34.673Z,9.90
2019-02-19T03:50:00.856Z,9.90
2019-02-19T03:52:27.230Z,9.90
2019-02-19T03:54:53.515Z,9.90
2019-02-19T03:57:19.817Z,9.90
2019-02-19T03:59:46.127Z,9.90
2019-02-19T04:02:12.547Z,10.00
2019-02-19T04:04:38.942Z,10.10
2019-02-19T04:07:05.267Z,10.10
2019-02-19T04:09:31.468Z,10.20
2019-02-19T04:11:57.755Z,10.00
2019-02-19T04:14:24.004Z,9.80
2019-02-19T04:16:50.209Z,9.60
2019-02-19T04:19:16.424Z,9.50
2019-02-19T04:21:42.754Z,9.50
2019-02-19T04:24:09.074Z,9.40
2019-02-19T04:26:35.273Z,9.20
2019-02-19T04:29:01.496Z,9.10
2019-02-19T04:31:27.702Z,9.10
2019-02-19T04:33:53.888Z,9.00
2019-02-19T04:36:20.147Z,9.00
2019-02-19T04:38:46.335Z,9.10
2019-02-19T04:41:12.562Z,9.10
2019-02-19T04:43:38.806Z,9.10
2019-02-19T04:46:05.012Z,9.00
2019-02-19T04:48:31.262Z,9.00
2019-02-19T04:50:57.448Z,9.00
2019-02-19T04:53:23.669Z,9.00
2019-02-19T04:55:49.988Z,9.00
2019-02-19T04:58:16.219Z,9.10
2019-02-19T05:00:42.509Z,9.00
2019-02-19T05:03:08.722Z,9.00
2019-02-19T05:05:34.931Z,8.90
2019-02-19T05:08:01.231Z,9.00
2019-02-19T05:10:27.455Z,9.00
2019-02-19T05:12:53.680Z,8.90
2019-02-19T05:15:19.909Z,9.00
2019-02-19T05:17:46.097Z,9.10
2019-02-19T05:20:12.406Z,9.00
2019-02-19T05:22:38.680Z,9.10
2019-02-19T05:25:06.170Z,9.30
2019-02-19T05:27:32.380Z,9.30
2019-02-19T05:29:58.566Z,9.30
2019-02-19T05:32:24.781Z,9.30
2019-02-19T05:34:51.097Z,9.40
2019-02-19T05:37:17.285Z,9.50
2019-02-19T05:39:43.495Z,9.30
2019-02-19T05:42:09.906Z,9.30
2019-02-19T05:44:36.214Z,9.20
2019-02-19T05:47:02.469Z,9.30
2019-02-19T05:49:28.651Z,9.40
2019-02-19T05:51:54.955Z,9.40
2019-02-19T05:54:21.185Z,9.20
2019-02-19T05:56:47.511Z,9.20
2019-02-19T05:59:13.725Z,9.30
2019-02-19T06:01:39.924Z,9.40
2019-02-19T06:04:06.151Z,9.40
2019-02-19T06:06:32.368Z,9.40
2019-02-19T06:08:58.595Z,9.40
2019-02-19T06:11:24.808Z,9.30
2019-02-19T06:13:51.038Z,9.40
2019-02-19T06:16:17.251Z,9.10
2019-02-19T06:18:43.433Z,9.10
2019-02-19T06:21:09.653Z,9.00
2019-02-19T06:23:35.938Z,8.90
2019-02-19T06:26:02.260Z,8.90
2019-02-19T06:28:28.471Z,8.80
2019-02-19T06:30:54.672Z,8.90
2019-02-19T06:33:20.891Z,9.00
2019-02-19T06:35:47.199Z,9.00
2019-02-19T06:38:13.395Z,8.90
2019-02-19T06:40:39.624Z,8.90
2019-02-19T06:43:05.863Z,8.90
2019-02-19T06:45:32.151Z,9.00
2019-02-19T06:47:58.343Z,9.00
2019-02-19T06:50:24.754Z,9.10
2019-02-19T06:52:50.995Z,9.00
2019-02-19T06:55:17.323Z,8.90
2019-02-19T06:57:44.376Z,8.90
2019-02-19T07:00:12.188Z,8.90
2019-02-19T07:02:52.220Z,9.00
2019-02-19T07:05:20.342Z,9.00
2019-02-19T07:07:46.512Z,8.90
2019-02-19T07:10:12.724Z,8.90
2019-02-19T07:12:38.943Z,8.90
2019-02-19T07:15:06.950Z,9.00
2019-02-19T07:17:33.302Z,8.90
2019-02-19T07:19:59.503Z,8.90
2019-02-19T07:22:25.711Z,8.90
2019-02-19T07:24:52.007Z,8.80
2019-02-19T07:27:18.310Z,9.00
2019-02-19T07:29:44.490Z,9.10
2019-02-19T07:32:10.692Z,9.10
2019-02-19T07:34:36.904Z,9.00
2019-02-19T07:37:03.312Z,9.00
2019-02-19T07:39:29.543Z,9.10
2019-02-19T07:41:55.853Z,9.00
2019-02-19T07:44:22.083Z,9.00
2019-02-19T07:46:48.283Z,8.80
2019-02-19T07:49:14.539Z,8.80
2019-02-19T07:51:42.649Z,8.90
2019-02-19T07:54:08.994Z,8.90
2019-02-19T07:56:35.215Z,8.90
2019-02-19T07:59:01.453Z,9.10
2019-02-19T08:01:27.779Z,9.10
2019-02-19T08:03:54.120Z,9.00
2019-02-19T08:06:22.125Z,8.80
2019-02-19T08:08:48.611Z,9.00
2019-02-19T08:11:14.912Z,8.90
2019-02-19T08:13:41.131Z,8.90
2019-02-19T08:16:07.426Z,8.90
2019-02-19T08:18:33.615Z,8.90
2019-02-19T08:20:59.843Z,8.90
2019-02-19T08:23:29.921Z,9.00
2019-02-19T08:25:56.331Z,9.00
2019-02-19T08:28:22.522Z,9.10
2019-02-19T08:30:48.829Z,9.10
2019-02-19T08:33:15.028Z,9.10
2019-02-19T08:35:41.264Z,9.10
2019-02-19T08:38:07.458Z,9.10
2019-02-19T08:40:33.697Z,9.20
2019-02-19T08:42:59.903Z,9.30
2019-02-19T08:45:26.130Z,9.40
2019-02-19T08:47:52.831Z,9.30
2019-02-19T08:50:19.029Z,9.30
2019-02-19T08:52:45.244Z,9.40
2019-02-19T08:55:11.456Z,9.20
2019-02-19T08:57:37.891Z,9.20
2019-02-19T09:00:07.610Z,9.20
2019-02-19T09:02:34.231Z,9.50
2019-02-19T09:05:00.449Z,9.70
2019-02-19T09:07:26.680Z,9.70
2019-02-19T09:09:52.935Z,9.80
2019-02-19T09:12:19.127Z,10.00
2019-02-19T09:14:45.335Z,10.40
2019-02-19T09:17:11.694Z,10.80
2019-02-19T09:19:37.894Z,10.90
2019-02-19T09:22:04.111Z,11.10
2019-02-19T09:24:30.312Z,11.00
2019-02-19T09:26:56.530Z,11.00
2019-02-19T09:29:22.738Z,11.40
2019-02-19T09:31:48.931Z,11.40
2019-02-19T09:34:15.171Z,11.70
2019-02-19T09:36:41.418Z,11.80
2019-02-19T09:39:07.631Z,11.90
2019-02-19T09:41:33.829Z,11.50
2019-02-19T09:44:00.135Z,11.20
2019-02-19T09:46:26.370Z,11.10
2019-02-19T09:48:52.799Z,11.20
2019-02-19T09:51:19.001Z,10.90
2019-02-19T09:53:45.226Z,10.70
2019-02-19T09:56:11.604Z,10.80
2019-02-19T09:58:37.908Z,11.90
2019-02-19T10:01:04.103Z,13.10
2019-02-19T10:03:30.292Z,13.70
2019-02-19T10:05:56.523Z,14.90
2019-02-19T10:08:22.831Z,15.90
2019-02-19T10:10:49.044Z,15.20
2019-02-19T10:13:15.248Z,15.80
2019-02-19T10:15:41.466Z,16.60
2019-02-19T10:18:10.344Z,17.40
2019-02-19T10:20:35.845Z,17.70
2019-02-19T10:23:02.176Z,17.10
2019-02-19T10:25:28.371Z,15.50
2019-02-19T10:27:54.636Z,15.20
2019-02-19T10:30:20.922Z,15.20
2019-02-19T10:32:47.141Z,15.40
2019-02-19T10:35:13.358Z,15.70
2019-02-19T10:37:39.546Z,15.70
2019-02-19T10:40:16.318Z,15.40
2019-02-19T10:42:42.628Z,15.60
2019-02-19T10:45:12.444Z,16.70
2019-02-19T10:47:38.646Z,17.20
2019-02-19T10:50:08.292Z,17.40
2019-02-19T10:52:34.619Z,18.30
2019-02-19T10:55:00.994Z,17.60
2019-02-19T10:57:27.220Z,16.10
2019-02-19T10:59:53.525Z,14.60
2019-02-19T11:02:19.753Z,14.40
2019-02-19T11:04:45.996Z,14.40
2019-02-19T11:07:12.211Z,14.80
2019-02-19T11:09:38.519Z,15.90
2019-02-19T11:12:04.799Z,15.40
2019-02-19T11:14:31.010Z,15.40
2019-02-19T11:16:57.284Z,14.80
2019-02-19T11:19:23.566Z,14.70
2019-02-19T11:21:49.871Z,15.70
2019-02-19T11:24:16.076Z,16.70
2019-02-19T11:26:42.303Z,17.10
2019-02-19T11:29:08.661Z,15.60
2019-02-19T11:31:34.954Z,15.20
2019-02-19T11:34:01.147Z,14.40
2019-02-19T11:36:27.373Z,13.60
2019-02-19T11:38:53.682Z,13.40
2019-02-19T11:41:19.895Z,13.20
2019-02-19T11:43:46.222Z,13.00
2019-02-19T11:46:12.538Z,12.70
2019-02-19T11:48:38.752Z,12.40
2019-02-19T11:51:05.021Z,12.30
2019-02-19T11:53:31.258Z,12.90
2019-02-19T11:55:57.556Z,13.10
2019-02-19T11:58:23.779Z,13.00
2019-02-19T12:00:50.090Z,13.30
2019-02-19T12:03:16.382Z,13.60
2019-02-19T12:05:42.722Z,13.40
2019-02-19T12:08:08.926Z,13.10
2019-02-19T12:10:35.136Z,13.90
2019-02-19T12:13:01.354Z,14.20
2019-02-19T12:15:34.925Z,14.00
2019-02-19T12:17:55.801Z,14.20
2019-02-19T12:20:21.997Z,13.70
2019-02-19T12:22:48.227Z,14.30
2019-02-19T12:25:14.531Z,14.00
2019-02-19T12:27:40.760Z,13.40
2019-02-19T12:30:10.804Z,13.40
2019-02-19T12:32:37.070Z,14.30
2019-02-19T12:35:04.603Z,14.20
2019-02-19T12:37:30.811Z,13.90
2019-02-19T12:39:57.144Z,13.40
2019-02-19T12:42:23.364Z,13.20
2019-02-19T12:44:49.560Z,12.80
2019-02-19T12:47:15.796Z,12.40
2019-02-19T12:49:42.183Z,12.30
2019-02-19T12:52:08.419Z,12.30
2019-02-19T12:54:34.653Z,12.40
2019-02-19T12:57:00.931Z,12.40
2019-02-19T12:59:27.161Z,12.30
2019-02-19T13:01:53.376Z,12.40
2019-02-19T13:04:19.602Z,12.60
2019-02-19T13:06:45.794Z,12.70
2019-02-19T13:09:12.222Z,12.70
2019-02-19T13:11:38.550Z,12.70
2019-02-19T13:14:04.781Z,12.50
2019-02-19T13:16:31.033Z,12.60
2019-02-19T13:19:03.251Z,12.90
2019-02-19T13:21:25.488Z,13.10
2019-02-19T13:23:51.722Z,13.10
2019-02-19T13:26:18.025Z,12.90
2019-02-19T13:28:44.257Z,12.60
2019-02-19T13:31:10.709Z,12.40
2019-02-19T13:33:37.016Z,12.20
2019-02-19T13:36:03.944Z,11.90
2019-02-19T13:38:30.148Z,11.90
2019-02-19T13:40:56.472Z,12.10
2019-02-19T13:43:24.616Z,12.30
2019-02-19T13:45:50.915Z,12.40
2019-02-19T13:48:17.274Z,12.20
2019-02-19T13:50:43.483Z,12.10
2019-02-19T13:53:20.698Z,11.90
2019-02-19T13:55:51.580Z,12.10
2019-02-19T13:58:17.945Z,12.40
2019-02-19T14:00:46.028Z,12.60
2019-02-19T14:03:12.261Z,12.70
2019-02-19T14:05:38.603Z,12.20
2019-02-19T14:08:13.969Z,12.30
2019-02-19T14:10:33.083Z,12.40
2019-02-19T14:12:59.541Z,12.50
2019-02-19T14:15:30.410Z,12.50
2019-02-19T14:17:56.630Z,12.30
2019-02-19T14:20:27.911Z,12.40
2019-02-19T14:22:56.095Z,12.40
2019-02-19T14:25:27.365Z,12.20
2019-02-19T14:27:58.229Z,12.20
2019-02-19T14:30:32.371Z,12.30
2019-02-19T14:33:03.535Z,12.60
2019-02-19T14:35:31.736Z,12.50
2019-02-19T14:37:59.983Z,12.30
2019-02-19T14:40:36.951Z,12.10
2019-02-19T14:43:21.817Z,12.00
2019-02-19T14:45:50.029Z,12.00
2019-02-19T14:48:21.335Z,12.10
2019-02-19T14:50:52.382Z,12.10
2019-02-19T14:53:37.204Z,12.00
2019-02-19T14:56:14.226Z,12.00
2019-02-19T14:58:59.029Z,11.90
2019-02-19T15:01:29.880Z,11.70
2019-02-19T15:04:00.787Z,11.70
2019-02-19T15:06:38.120Z,11.80
2019-02-19T15:09:13.217Z,11.70
2019-02-19T15:11:41.419Z,11.60
2019-02-19T15:14:09.548Z,11.60
2019-02-19T15:16:55.559Z,11.60
2019-02-19T15:19:23.916Z,11.60
2019-02-19T15:21:57.938Z,11.60
2019-02-19T15:24:38.300Z,11.80
2019-02-19T15:27:12.543Z,11.80
2019-02-19T15:29:43.707Z,11.70
2019-02-19T15:32:17.622Z,11.50
2019-02-19T15:34:51.844Z,11.50
2019-02-19T15:37:22.736Z,11.60
2019-02-19T15:39:50.968Z,11.50
2019-02-19T15:42:24.926Z,11.50
2019-02-19T15:44:53.049Z,11.50
2019-02-19T15:47:33.329Z,11.60
2019-02-19T15:50:01.475Z,11.50
2019-02-19T15:52:38.471Z,11.50
2019-02-19T15:55:09.336Z,11.50
2019-02-19T15:57:46.248Z,11.60
2019-02-19T16:00:31.467Z,11.60
2019-02-19T16:02:59.720Z,11.60
2019-02-19T16:05:30.570Z,11.40
2019-02-19T16:08:04.925Z,11.40
2019-02-19T16:10:35.785Z,11.50
2019-02-19T16:13:03.922Z,11.40
2019-02-19T16:15:41.012Z,11.30
2019-02-19T16:18:21.056Z,11.30
2019-02-19T16:20:49.173Z,11.30
2019-02-19T16:23:17.324Z,11.20
2019-02-19T16:25:48.368Z,11.20
2019-02-19T16:28:31.423Z,11.30
2019-02-19T16:30:59.599Z,11.20
2019-02-19T16:33:36.871Z,11.20
2019-02-19T16:36:10.873Z,11.10
2019-02-19T16:38:41.754Z,11.10
2019-02-19T16:41:25.976Z,11.10
2019-02-19T16:44:06.157Z,11.10
2019-02-19T16:46:41.179Z,11.00
2019-02-19T16:49:27.416Z,11.10
2019-02-19T16:51:55.776Z,11.10
2019-02-19T16:54:38.938Z,11.20
2019-02-19T16:57:07.080Z,11.30
2019-02-19T16:59:37.937Z,11.30
2019-02-19T17:02:06.278Z,11.30
2019-02-19T17:04:49.318Z,11.30
2019-02-19T17:07:20.412Z,11.20
2019-02-19T17:09:48.561Z,11.20
2019-02-19T17:12:16.768Z,11.20
2019-02-19T17:14:57.183Z,11.10
2019-02-19T17:17:42.048Z,11.10
2019-02-19T17:20:28.831Z,10.90
2019-02-19T17:22:48.935Z,10.90
2019-02-19T17:25:26.184Z,10.90
2019-02-19T17:27:54.434Z,10.80
2019-02-19T17:30:34.792Z,10.70
2019-02-19T17:33:02.989Z,10.70
2019-02-19T17:35:31.363Z,10.70
2019-02-19T17:38:02.271Z,10.60
2019-02-19T17:40:33.211Z,10.60
2019-02-19T17:43:04.185Z,10.50
2019-02-19T17:45:38.188Z,10.50
2019-02-19T17:48:22.817Z,10.40
2019-02-19T17:51:00.251Z,10.50
2019-02-19T17:53:28.468Z,10.40
2019-02-19T17:55:59.627Z,10.30
2019-02-19T17:58:30.482Z,10.40
2019-02-19T18:01:07.523Z,10.40
2019-02-19T18:03:38.899Z,10.40
2019-02-19T18:06:19.269Z,10.40
2019-02-19T18:08:47.489Z,10.60
2019-02-19T18:11:24.656Z,10.50
2019-02-19T18:14:01.620Z,10.40
2019-02-19T18:16:46.091Z,10.40
2019-02-19T18:19:12.337Z,10.40
2019-02-19T18:21:38.636Z,10.40
2019-02-19T18:24:04.934Z,10.30
2019-02-19T18:26:31.175Z,10.40
2019-02-19T18:28:57.404Z,10.50
2019-02-19T18:31:23.635Z,10.40
2019-02-19T18:33:49.884Z,10.30
2019-02-19T18:36:16.224Z,10.30
2019-02-19T18:38:42.456Z,10.30
2019-02-19T18:41:08.655Z,10.40
2019-02-19T18:43:35.000Z,10.40
2019-02-19T18:46:01.417Z,10.40
2019-02-19T18:48:27.744Z,10.40
2019-02-19T18:50:58.589Z,10.40
2019-02-19T18:53:22.386Z,10.40
2019-02-19T18:55:48.639Z,10.40
2019-02-19T18:58:14.965Z,10.40
2019-02-19T19:00:41.313Z,10.40
2019-02-19T19:03:07.654Z,10.30
2019-02-19T19:05:34.001Z,10.20
2019-02-19T19:08:00.248Z,10.10
2019-02-19T19:10:26.581Z,10.20
2019-02-19T19:12:52.884Z,10.20
2019-02-19T19:15:19.359Z,10.20
2019-02-19T19:17:45.689Z,10.10
2019-02-19T19:20:12.164Z,10.10
2019-02-19T19:22:38.527Z,10.20
2019-02-19T19:25:05.882Z,10.20
2019-02-19T19:27:32.232Z,10.30
2019-02-19T19:29:58.520Z,10.30
2019-02-19T19:32:24.795Z,10.30
2019-02-19T19:34:51.149Z,10.40
2019-02-19T19:37:17.399Z,10.50
2019-02-19T19:39:43.670Z,10.40
2019-02-19T19:42:09.960Z,10.40
2019-02-19T19:44:36.408Z,10.30
2019-02-19T19:47:02.752Z,10.30
2019-02-19T19:49:29.063Z,10.30
2019-02-19T19:51:55.431Z,10.20
2019-02-19T19:54:21.691Z,10.10
2019-02-19T19:56:48.120Z,10.10
2019-02-19T19:59:14.348Z,10.10
2019-02-19T20:01:40.731Z,10.10
2019-02-19T20:04:07.161Z,10.10
2019-02-19T20:06:33.614Z,10.00
2019-02-19T20:08:59.859Z,10.00
2019-02-19T20:11:26.104Z,10.00
2019-02-19T20:13:52.451Z,10.00
2019-02-19T20:16:18.685Z,9.90
2019-02-19T20:18:45.048Z,9.90
2019-02-19T20:21:11.540Z,9.70
2019-02-19T20:23:37.873Z,9.70
2019-02-19T20:26:04.353Z,9.60
2019-02-19T20:28:30.656Z,9.60
2019-02-19T20:30:57.269Z,9.50
2019-02-19T20:33:23.527Z,9.50
2019-02-19T20:35:50.076Z,9.40
2019-02-19T20:38:16.539Z,9.60
2019-02-19T20:40:42.728Z,9.70
2019-02-19T20:43:08.987Z,9.80
2019-02-19T20:45:35.399Z,9.80
2019-02-19T20:48:01.756Z,9.90
2019-02-19T20:50:28.070Z,9.90
2019-02-19T20:52:54.393Z,9.90
2019-02-19T20:55:20.836Z,9.80
2019-02-19T20:57:47.215Z,9.80
2019-02-19T21:00:15.633Z,9.80
2019-02-19T21:02:42.012Z,9.70
2019-02-19T21:05:09.165Z,9.70
2019-02-19T21:07:35.414Z,9.60
2019-02-19T21:10:01.823Z,9.60
2019-02-19T21:12:28.219Z,9.60
2019-02-19T21:14:54.487Z,9.60
2019-02-19T21:17:20.754Z,9.50
2019-02-19T21:19:46.987Z,9.50
2019-02-19T21:22:13.328Z,9.60
2019-02-19T21:24:39.561Z,9.50
2019-02-19T21:27:05.787Z,9.60
2019-02-19T21:29:32.100Z,9.60
2019-02-19T21:31:58.491Z,9.50
2019-02-19T21:34:24.743Z,9.50
2019-02-19T21:36:51.212Z,9.40
2019-02-19T21:39:17.503Z,9.30
2019-02-19T21:41:43.713Z,9.30
2019-02-19T21:44:10.205Z,9.30
2019-02-19T21:46:36.457Z,9.40
2019-02-19T21:49:02.880Z,9.40
2019-02-19T21:51:29.208Z,9.50
2019-02-19T21:53:55.565Z,9.60
2019-02-19T21:56:21.900Z,9.70
2019-02-19T21:58:48.111Z,9.60
2019-02-19T22:01:14.592Z,9.50
2019-02-19T22:03:40.999Z,9.40
2019-02-19T22:06:07.237Z,9.40
2019-02-19T22:08:33.439Z,9.40
2019-02-19T22:10:59.664Z,9.40
2019-02-19T22:13:25.875Z,9.40
2019-02-19T22:15:52.096Z,9.50
2019-02-19T22:18:18.344Z,9.50
2019-02-19T22:20:46.715Z,9.40
2019-02-19T22:23:13.016Z,9.40
2019-02-19T22:25:39.445Z,9.30
2019-02-19T22:28:06.044Z,9.30
2019-02-19T22:30:32.398Z,9.40
2019-02-19T22:32:58.607Z,9.50
2019-02-19T22:35:24.828Z,9.50
2019-02-19T22:37:51.136Z,9.50
2019-02-19T22:40:17.379Z,9.50
2019-02-19T22:42:43.627Z,9.50
2019-02-19T22:45:10.064Z,9.50
2019-02-19T22:47:36.392Z,9.50
2019-02-19T22:50:04.497Z,9.40
2019-02-19T22:52:30.703Z,9.40
2019-02-19T22:55:13.784Z,9.30
2019-02-19T22:57:40.012Z,9.30
2019-02-19T23:00:11.931Z,9.30
2019-02-19T23:02:38.374Z,9.30
2019-02-19T23:05:05.471Z,9.30
2019-02-19T23:07:31.776Z,9.30
2019-02-19T23:09:57.983Z,9.30
2019-02-19T23:12:24.275Z,9.20
2019-02-19T23:14:50.529Z,9.20
2019-02-19T23:17:16.736Z,9.20
2019-02-19T23:19:43.037Z,9.20
2019-02-19T23:22:09.462Z,9.20
2019-02-19T23:24:35.690Z,9.20
2019-02-19T23:27:01.916Z,9.10
2019-02-19T23:29:28.243Z,9.10
2019-02-19T23:31:54.478Z,9.00
2019-02-19T23:34:20.668Z,8.80
2019-02-19T23:36:48.783Z,8.90
2019-02-19T23:39:14.983Z,9.00
2019-02-19T23:41:41.295Z,9.00
2019-02-19T23:44:07.534Z,9.00
2019-02-19T23:46:33.727Z,9.10
2019-02-19T23:48:59.926Z,9.10
2019-02-19T23:51:26.169Z,9.20
2019-02-19T23:53:52.478Z,9.20
2019-02-19T23:56:18.719Z,9.10
2019-02-19T23:58:45.009Z,9.00
